Terminal Aerodrome Forecast
Issued by NWS Dallas/Fort Worth, TX

Home | Current Version | Previous Version | Text Only | Print | Product List | Glossary On
Versions: 1 2 3 4 5 6 7 8 9 10 11 12 13 14 15 16 17 18 19 20 21 22 23 24 25 26 27 28 29 30 31 32 33 34 35 36 37 38 39 40 41 42 43 44 45
000
FTUS44 KFWD 270316 AAB
TAFACT
TAF AMD
KACT 270316Z 2703/2724 15010KT P6SM SCT040
     FM270600 16009KT P6SM VCTS BKN020CB
     FM270800 17008KT P6SM BKN008
      TEMPO 2708/2711 5SM TSRA BKN008CB
     FM271700 18010KT P6SM OVC015=

USA.gov is the U.S. government's official web portal to all federal, state and local government web resources and services.